sensor_id;sensor_type;location;lat;lon;timestamp;P1;durP1;ratioP1;P2;durP2;ratioP2
78116;SDS011;69042;59.120;37.904;2023-04-07T00:00:55;7.50;;;3.67;;
78116;SDS011;69042;59.120;37.904;2023-04-07T00:03:21;8.90;;;3.30;;
78116;SDS011;69042;59.120;37.904;2023-04-07T00:05:48;8.55;;;3.83;;
78116;SDS011;69042;59.120;37.904;2023-04-07T00:08:14;6.80;;;2.83;;
78116;SDS011;69042;59.120;37.904;2023-04-07T00:10:40;6.70;;;3.03;;
78116;SDS011;69042;59.120;37.904;2023-04-07T00:13:06;7.03;;;2.72;;
78116;SDS011;69042;59.120;37.904;2023-04-07T00:15:32;8.70;;;3.65;;
78116;SDS011;69042;59.120;37.904;2023-04-07T00:17:59;7.53;;;3.50;;
78116;SDS011;69042;59.120;37.904;2023-04-07T00:20:25;8.52;;;3.92;;
78116;SDS011;69042;59.120;37.904;2023-04-07T00:22:51;9.38;;;3.67;;
78116;SDS011;69042;59.120;37.904;2023-04-07T00:25:17;9.38;;;2.65;;
78116;SDS011;69042;59.120;37.904;2023-04-07T00:27:43;6.70;;;3.20;;
78116;SDS011;69042;59.120;37.904;2023-04-07T00:30:09;9.35;;;3.55;;
78116;SDS011;69042;59.120;37.904;2023-04-07T00:32:36;7.35;;;3.25;;
78116;SDS011;69042;59.120;37.904;2023-04-07T00:35:02;7.15;;;3.75;;
78116;SDS011;69042;59.120;37.904;2023-04-07T00:37:28;7.93;;;3.67;;
78116;SDS011;69042;59.120;37.904;2023-04-07T00:39:54;9.20;;;4.00;;
78116;SDS011;69042;59.120;37.904;2023-04-07T00:42:21;7.00;;;4.25;;
78116;SDS011;69042;59.120;37.904;2023-04-07T00:44:48;7.28;;;3.55;;
78116;SDS011;69042;59.120;37.904;2023-04-07T00:47:14;8.55;;;3.67;;
78116;SDS011;69042;59.120;37.904;2023-04-07T00:49:40;5.20;;;2.85;;
78116;SDS011;69042;59.120;37.904;2023-04-07T00:52:06;6.57;;;3.38;;
78116;SDS011;69042;59.120;37.904;2023-04-07T00:54:36;7.30;;;3.58;;
78116;SDS011;69042;59.120;37.904;2023-04-07T00:57:04;6.47;;;3.45;;
78116;SDS011;69042;59.120;37.904;2023-04-07T00:59:31;7.63;;;3.63;;
78116;SDS011;69042;59.120;37.904;2023-04-07T01:02:02;8.68;;;4.10;;
78116;SDS011;69042;59.120;37.904;2023-04-07T01:04:31;9.55;;;3.88;;
78116;SDS011;69042;59.120;37.904;2023-04-07T01:07:23;9.00;;;4.88;;
78116;SDS011;69042;59.120;37.904;2023-04-07T01:10:04;8.80;;;4.72;;
78116;SDS011;69042;59.120;37.904;2023-04-07T01:15:23;9.73;;;4.50;;
78116;SDS011;69042;59.120;37.904;2023-04-07T01:18:16;7.63;;;3.88;;
78116;SDS011;69042;59.120;37.904;2023-04-07T01:20:51;8.80;;;4.00;;
78116;SDS011;69042;59.120;37.904;2023-04-07T01:23:30;6.32;;;3.72;;
78116;SDS011;69042;59.120;37.904;2023-04-07T01:26:16;6.10;;;3.70;;
78116;SDS011;69042;59.120;37.904;2023-04-07T01:31:21;9.27;;;3.75;;
78116;SDS011;69042;59.120;37.904;2023-04-07T01:33:51;7.40;;;4.00;;
78116;SDS011;69042;59.120;37.904;2023-04-07T01:36:20;7.85;;;3.47;;
78116;SDS011;69042;59.120;37.904;2023-04-07T01:38:46;9.80;;;4.20;;
78116;SDS011;69042;59.120;37.904;2023-04-07T01:41:15;8.23;;;4.20;;
78116;SDS011;69042;59.120;37.904;2023-04-07T01:43:43;14.30;;;4.45;;
78116;SDS011;69042;59.120;37.904;2023-04-07T01:46:11;12.45;;;4.35;;
78116;SDS011;69042;59.120;37.904;2023-04-07T01:48:37;8.95;;;3.97;;
78116;SDS011;69042;59.120;37.904;2023-04-07T01:51:05;8.18;;;4.22;;
78116;SDS011;69042;59.120;37.904;2023-04-07T01:53:33;8.00;;;3.90;;
78116;SDS011;69042;59.120;37.904;2023-04-07T01:56:02;11.30;;;4.45;;
78116;SDS011;69042;59.120;37.904;2023-04-07T01:58:32;7.30;;;3.83;;
78116;SDS011;69042;59.120;37.904;2023-04-07T02:00:58;9.15;;;4.00;;
78116;SDS011;69042;59.120;37.904;2023-04-07T02:03:33;8.60;;;3.85;;
78116;SDS011;69042;59.120;37.904;2023-04-07T02:06:05;10.23;;;4.00;;
78116;SDS011;69042;59.120;37.904;2023-04-07T02:08:35;9.95;;;3.70;;
78116;SDS011;69042;59.120;37.904;2023-04-07T02:11:06;10.45;;;4.70;;
78116;SDS011;69042;59.120;37.904;2023-04-07T02:13:36;14.63;;;5.00;;
78116;SDS011;69042;59.120;37.904;2023-04-07T02:16:03;15.25;;;5.13;;
78116;SDS011;69042;59.120;37.904;2023-04-07T02:18:31;10.35;;;4.90;;
78116;SDS011;69042;59.120;37.904;2023-04-07T02:20:58;10.95;;;4.60;;
78116;SDS011;69042;59.120;37.904;2023-04-07T02:23:26;8.90;;;5.05;;
78116;SDS011;69042;59.120;37.904;2023-04-07T02:25:54;8.43;;;4.38;;
78116;SDS011;69042;59.120;37.904;2023-04-07T02:28:21;10.43;;;4.35;;
78116;SDS011;69042;59.120;37.904;2023-04-07T02:30:47;7.97;;;4.13;;
78116;SDS011;69042;59.120;37.904;2023-04-07T02:33:13;6.70;;;3.97;;
78116;SDS011;69042;59.120;37.904;2023-04-07T02:35:42;9.23;;;3.70;;
78116;SDS011;69042;59.120;37.904;2023-04-07T02:38:08;9.90;;;4.22;;
78116;SDS011;69042;59.120;37.904;2023-04-07T02:40:34;7.70;;;3.85;;
78116;SDS011;69042;59.120;37.904;2023-04-07T02:43:01;8.75;;;3.55;;
78116;SDS011;69042;59.120;37.904;2023-04-07T02:45:27;8.57;;;3.80;;
78116;SDS011;69042;59.120;37.904;2023-04-07T02:47:53;7.50;;;3.90;;
78116;SDS011;69042;59.120;37.904;2023-04-07T02:50:19;14.73;;;3.95;;
78116;SDS011;69042;59.120;37.904;2023-04-07T02:52:45;8.60;;;4.03;;
78116;SDS011;69042;59.120;37.904;2023-04-07T02:55:13;7.65;;;3.83;;
78116;SDS011;69042;59.120;37.904;2023-04-07T02:57:40;9.32;;;3.80;;
78116;SDS011;69042;59.120;37.904;2023-04-07T03:00:19;10.07;;;3.88;;
78116;SDS011;69042;59.120;37.904;2023-04-07T03:03:00;11.38;;;4.22;;
78116;SDS011;69042;59.120;37.904;2023-04-07T03:05:29;7.25;;;4.40;;
78116;SDS011;69042;59.120;37.904;2023-04-07T03:07:56;10.45;;;4.70;;
78116;SDS011;69042;59.120;37.904;2023-04-07T03:10:22;12.15;;;4.97;;
78116;SDS011;69042;59.120;37.904;2023-04-07T03:12:49;11.85;;;4.93;;
78116;SDS011;69042;59.120;37.904;2023-04-07T03:15:15;8.20;;;3.97;;
78116;SDS011;69042;59.120;37.904;2023-04-07T03:17:45;8.48;;;4.57;;
78116;SDS011;69042;59.120;37.904;2023-04-07T03:20:11;12.52;;;4.68;;
78116;SDS011;69042;59.120;37.904;2023-04-07T03:22:37;14.82;;;4.78;;
78116;SDS011;69042;59.120;37.904;2023-04-07T03:25:07;8.00;;;3.90;;
78116;SDS011;69042;59.120;37.904;2023-04-07T03:27:34;8.55;;;4.68;;
78116;SDS011;69042;59.120;37.904;2023-04-07T03:30:01;12.88;;;4.22;;
78116;SDS011;69042;59.120;37.904;2023-04-07T03:32:28;9.15;;;4.53;;
78116;SDS011;69042;59.120;37.904;2023-04-07T03:34:55;10.70;;;4.57;;
78116;SDS011;69042;59.120;37.904;2023-04-07T03:37:21;13.27;;;4.70;;
78116;SDS011;69042;59.120;37.904;2023-04-07T03:39:48;8.18;;;4.32;;
78116;SDS011;69042;59.120;37.904;2023-04-07T03:42:25;12.70;;;4.68;;
78116;SDS011;69042;59.120;37.904;2023-04-07T03:44:57;10.23;;;5.03;;
78116;SDS011;69042;59.120;37.904;2023-04-07T03:47:23;11.32;;;4.30;;
78116;SDS011;69042;59.120;37.904;2023-04-07T03:49:55;16.40;;;5.43;;
78116;SDS011;69042;59.120;37.904;2023-04-07T03:52:22;10.25;;;4.55;;
78116;SDS011;69042;59.120;37.904;2023-04-07T03:54:53;11.85;;;4.60;;
78116;SDS011;69042;59.120;37.904;2023-04-07T03:57:23;9.13;;;4.10;;
78116;SDS011;69042;59.120;37.904;2023-04-07T03:59:50;10.90;;;3.70;;
78116;SDS011;69042;59.120;37.904;2023-04-07T04:02:17;8.43;;;4.60;;
78116;SDS011;69042;59.120;37.904;2023-04-07T04:04:47;11.10;;;4.18;;
78116;SDS011;69042;59.120;37.904;2023-04-07T04:07:14;12.65;;;4.80;;
78116;SDS011;69042;59.120;37.904;2023-04-07T04:09:47;10.57;;;5.10;;
78116;SDS011;69042;59.120;37.904;2023-04-07T04:12:13;12.23;;;4.25;;
78116;SDS011;69042;59.120;37.904;2023-04-07T04:17:16;11.55;;;3.92;;
78116;SDS011;69042;59.120;37.904;2023-04-07T04:22:21;18.60;;;3.40;;
78116;SDS011;69042;59.120;37.904;2023-04-07T04:24:51;8.52;;;4.25;;
78116;SDS011;69042;59.120;37.904;2023-04-07T04:27:17;8.13;;;3.20;;
78116;SDS011;69042;59.120;37.904;2023-04-07T04:29:48;12.15;;;3.22;;
78116;SDS011;69042;59.120;37.904;2023-04-07T04:32:16;13.05;;;3.22;;
78116;SDS011;69042;59.120;37.904;2023-04-07T04:34:43;10.15;;;2.70;;
78116;SDS011;69042;59.120;37.904;2023-04-07T04:37:10;9.82;;;2.83;;
78116;SDS011;69042;59.120;37.904;2023-04-07T04:39:40;10.23;;;3.15;;
78116;SDS011;69042;59.120;37.904;2023-04-07T04:42:07;9.38;;;3.10;;
78116;SDS011;69042;59.120;37.904;2023-04-07T04:44:35;10.43;;;2.80;;
78116;SDS011;69042;59.120;37.904;2023-04-07T04:47:03;10.43;;;3.17;;
78116;SDS011;69042;59.120;37.904;2023-04-07T04:49:30;10.15;;;2.90;;
78116;SDS011;69042;59.120;37.904;2023-04-07T04:51:59;6.07;;;2.80;;
78116;SDS011;69042;59.120;37.904;2023-04-07T04:54:27;18.58;;;3.38;;
78116;SDS011;69042;59.120;37.904;2023-04-07T04:56:53;9.45;;;2.40;;
78116;SDS011;69042;59.120;37.904;2023-04-07T04:59:22;10.52;;;2.60;;
78116;SDS011;69042;59.120;37.904;2023-04-07T05:01:56;8.93;;;2.75;;
78116;SDS011;69042;59.120;37.904;2023-04-07T05:04:22;13.32;;;3.45;;
78116;SDS011;69042;59.120;37.904;2023-04-07T05:06:59;9.15;;;3.13;;
78116;SDS011;69042;59.120;37.904;2023-04-07T05:11:53;8.43;;;2.45;;
78116;SDS011;69042;59.120;37.904;2023-04-07T05:14:21;27.50;;;3.17;;
78116;SDS011;69042;59.120;37.904;2023-04-07T05:16:53;12.25;;;2.92;;
78116;SDS011;69042;59.120;37.904;2023-04-07T05:19:22;10.98;;;2.60;;
78116;SDS011;69042;59.120;37.904;2023-04-07T05:21:52;18.60;;;2.80;;
78116;SDS011;69042;59.120;37.904;2023-04-07T05:24:20;16.48;;;3.63;;
78116;SDS011;69042;59.120;37.904;2023-04-07T05:26:52;14.18;;;2.40;;
78116;SDS011;69042;59.120;37.904;2023-04-07T05:29:18;11.77;;;2.65;;
78116;SDS011;69042;59.120;37.904;2023-04-07T05:31:44;13.40;;;3.25;;
78116;SDS011;69042;59.120;37.904;2023-04-07T05:34:13;12.95;;;2.88;;
78116;SDS011;69042;59.120;37.904;2023-04-07T05:36:46;9.88;;;2.50;;
78116;SDS011;69042;59.120;37.904;2023-04-07T05:39:12;10.10;;;2.92;;
78116;SDS011;69042;59.120;37.904;2023-04-07T05:41:39;5.68;;;2.45;;
78116;SDS011;69042;59.120;37.904;2023-04-07T05:44:05;11.10;;;2.50;;
78116;SDS011;69042;59.120;37.904;2023-04-07T05:46:35;14.82;;;2.80;;
78116;SDS011;69042;59.120;37.904;2023-04-07T05:49:02;12.27;;;2.60;;
78116;SDS011;69042;59.120;37.904;2023-04-07T05:51:33;7.82;;;2.15;;
78116;SDS011;69042;59.120;37.904;2023-04-07T05:54:03;5.93;;;2.30;;
78116;SDS011;69042;59.120;37.904;2023-04-07T05:56:30;13.95;;;2.47;;
78116;SDS011;69042;59.120;37.904;2023-04-07T05:58:56;16.30;;;2.75;;
78116;SDS011;69042;59.120;37.904;2023-04-07T06:01:23;12.35;;;3.30;;
78116;SDS011;69042;59.120;37.904;2023-04-07T06:03:50;11.50;;;2.53;;
78116;SDS011;69042;59.120;37.904;2023-04-07T06:06:24;15.18;;;2.72;;
78116;SDS011;69042;59.120;37.904;2023-04-07T06:08:51;7.20;;;2.10;;
78116;SDS011;69042;59.120;37.904;2023-04-07T06:11:17;6.38;;;1.70;;
78116;SDS011;69042;59.120;37.904;2023-04-07T06:13:43;20.67;;;3.78;;
78116;SDS011;69042;59.120;37.904;2023-04-07T06:16:09;12.80;;;2.85;;
78116;SDS011;69042;59.120;37.904;2023-04-07T06:18:36;13.15;;;2.65;;
78116;SDS011;69042;59.120;37.904;2023-04-07T06:21:05;11.07;;;2.95;;
78116;SDS011;69042;59.120;37.904;2023-04-07T06:23:31;10.48;;;2.60;;
78116;SDS011;69042;59.120;37.904;2023-04-07T06:25:57;12.35;;;2.60;;
78116;SDS011;69042;59.120;37.904;2023-04-07T06:28:23;7.07;;;1.90;;
78116;SDS011;69042;59.120;37.904;2023-04-07T06:30:50;12.23;;;1.90;;
78116;SDS011;69042;59.120;37.904;2023-04-07T06:33:16;8.73;;;1.95;;
78116;SDS011;69042;59.120;37.904;2023-04-07T06:35:43;10.45;;;2.50;;
78116;SDS011;69042;59.120;37.904;2023-04-07T06:38:09;10.13;;;1.67;;
78116;SDS011;69042;59.120;37.904;2023-04-07T06:40:36;10.35;;;2.72;;
78116;SDS011;69042;59.120;37.904;2023-04-07T06:43:02;8.88;;;2.47;;
78116;SDS011;69042;59.120;37.904;2023-04-07T06:45:37;6.90;;;1.98;;
78116;SDS011;69042;59.120;37.904;2023-04-07T06:48:03;5.60;;;1.70;;
78116;SDS011;69042;59.120;37.904;2023-04-07T06:50:30;30.65;;;4.13;;
78116;SDS011;69042;59.120;37.904;2023-04-07T06:52:56;10.68;;;1.65;;
78116;SDS011;69042;59.120;37.904;2023-04-07T06:55:22;9.68;;;1.98;;
78116;SDS011;69042;59.120;37.904;2023-04-07T06:57:48;7.50;;;1.95;;
78116;SDS011;69042;59.120;37.904;2023-04-07T07:00:17;6.10;;;1.77;;
78116;SDS011;69042;59.120;37.904;2023-04-07T07:02:43;5.20;;;1.50;;
78116;SDS011;69042;59.120;37.904;2023-04-07T07:05:09;12.27;;;2.47;;
78116;SDS011;69042;59.120;37.904;2023-04-07T07:07:36;9.85;;;1.90;;
78116;SDS011;69042;59.120;37.904;2023-04-07T07:10:02;12.50;;;2.17;;
78116;SDS011;69042;59.120;37.904;2023-04-07T07:12:28;7.18;;;1.90;;
78116;SDS011;69042;59.120;37.904;2023-04-07T07:14:54;6.45;;;1.90;;
78116;SDS011;69042;59.120;37.904;2023-04-07T07:17:22;7.35;;;2.05;;
78116;SDS011;69042;59.120;37.904;2023-04-07T07:29:33;5.68;;;2.38;;
78116;SDS011;69042;59.120;37.904;2023-04-07T07:31:59;7.30;;;1.85;;
78116;SDS011;69042;59.120;37.904;2023-04-07T07:34:25;17.00;;;2.38;;
78116;SDS011;69042;59.120;37.904;2023-04-07T07:36:51;40.78;;;4.60;;
78116;SDS011;69042;59.120;37.904;2023-04-07T07:39:17;9.65;;;1.67;;
78116;SDS011;69042;59.120;37.904;2023-04-07T07:41:44;4.95;;;1.60;;
78116;SDS011;69042;59.120;37.904;2023-04-07T07:44:11;6.15;;;1.50;;
78116;SDS011;69042;59.120;37.904;2023-04-07T07:46:37;7.30;;;1.88;;
78116;SDS011;69042;59.120;37.904;2023-04-07T07:49:03;8.25;;;1.98;;
78116;SDS011;69042;59.120;37.904;2023-04-07T07:51:30;8.18;;;1.98;;
78116;SDS011;69042;59.120;37.904;2023-04-07T07:53:56;11.00;;;1.63;;
78116;SDS011;69042;59.120;37.904;2023-04-07T07:56:22;20.42;;;3.00;;
78116;SDS011;69042;59.120;37.904;2023-04-07T07:58:48;7.03;;;1.85;;
78116;SDS011;69042;59.120;37.904;2023-04-07T08:01:14;6.72;;;1.60;;
78116;SDS011;69042;59.120;37.904;2023-04-07T08:03:41;7.45;;;1.50;;
78116;SDS011;69042;59.120;37.904;2023-04-07T08:06:07;6.90;;;1.42;;
78116;SDS011;69042;59.120;37.904;2023-04-07T08:08:34;5.70;;;1.27;;
78116;SDS011;69042;59.120;37.904;2023-04-07T08:11:00;5.93;;;1.65;;
78116;SDS011;69042;59.120;37.904;2023-04-07T08:13:26;9.45;;;1.85;;
78116;SDS011;69042;59.120;37.904;2023-04-07T08:15:53;5.38;;;1.40;;
78116;SDS011;69042;59.120;37.904;2023-04-07T08:18:18;4.90;;;1.38;;
78116;SDS011;69042;59.120;37.904;2023-04-07T08:20:45;5.30;;;1.55;;
78116;SDS011;69042;59.120;37.904;2023-04-07T08:23:11;8.52;;;1.80;;
78116;SDS011;69042;59.120;37.904;2023-04-07T08:25:37;7.35;;;1.60;;
78116;SDS011;69042;59.120;37.904;2023-04-07T08:28:06;4.85;;;1.40;;
78116;SDS011;69042;59.120;37.904;2023-04-07T08:30:32;9.23;;;1.63;;
78116;SDS011;69042;59.120;37.904;2023-04-07T08:32:58;7.43;;;1.65;;
78116;SDS011;69042;59.120;37.904;2023-04-07T08:35:24;7.10;;;1.45;;
78116;SDS011;69042;59.120;37.904;2023-04-07T08:37:51;8.13;;;1.70;;
78116;SDS011;69042;59.120;37.904;2023-04-07T08:40:16;19.10;;;3.03;;
78116;SDS011;69042;59.120;37.904;2023-04-07T08:42:46;8.68;;;1.90;;
78116;SDS011;69042;59.120;37.904;2023-04-07T08:45:14;27.67;;;3.17;;
78116;SDS011;69042;59.120;37.904;2023-04-07T08:47:42;10.45;;;2.20;;
78116;SDS011;69042;59.120;37.904;2023-04-07T08:50:09;10.32;;;2.20;;
78116;SDS011;69042;59.120;37.904;2023-04-07T08:55:22;8.65;;;2.17;;
78116;SDS011;69042;59.120;37.904;2023-04-07T08:57:48;5.25;;;1.38;;
78116;SDS011;69042;59.120;37.904;2023-04-07T09:00:15;9.77;;;2.38;;
78116;SDS011;69042;59.120;37.904;2023-04-07T09:02:42;9.40;;;2.17;;
78116;SDS011;69042;59.120;37.904;2023-04-07T09:05:13;19.20;;;3.60;;
78116;SDS011;69042;59.120;37.904;2023-04-07T09:07:39;6.72;;;1.90;;
78116;SDS011;69042;59.120;37.904;2023-04-07T09:10:07;6.05;;;1.60;;
78116;SDS011;69042;59.120;37.904;2023-04-07T09:12:34;4.07;;;1.30;;
78116;SDS011;69042;59.120;37.904;2023-04-07T09:15:00;5.50;;;1.40;;
78116;SDS011;69042;59.120;37.904;2023-04-07T09:17:27;9.40;;;1.77;;
78116;SDS011;69042;59.120;37.904;2023-04-07T09:19:57;46.30;;;3.80;;
78116;SDS011;69042;59.120;37.904;2023-04-07T09:22:38;17.77;;;3.70;;
78116;SDS011;69042;59.120;37.904;2023-04-07T09:25:20;4.63;;;1.50;;
78116;SDS011;69042;59.120;37.904;2023-04-07T09:27:53;4.45;;;1.50;;
78116;SDS011;69042;59.120;37.904;2023-04-07T09:30:19;6.47;;;1.80;;
78116;SDS011;69042;59.120;37.904;2023-04-07T09:32:45;8.70;;;1.90;;
78116;SDS011;69042;59.120;37.904;2023-04-07T09:35:11;7.00;;;2.03;;
78116;SDS011;69042;59.120;37.904;2023-04-07T09:37:37;7.65;;;1.60;;
78116;SDS011;69042;59.120;37.904;2023-04-07T09:40:03;8.23;;;1.60;;
78116;SDS011;69042;59.120;37.904;2023-04-07T09:42:31;16.58;;;2.70;;
78116;SDS011;69042;59.120;37.904;2023-04-07T09:45:00;30.92;;;2.95;;
78116;SDS011;69042;59.120;37.904;2023-04-07T09:47:26;13.05;;;2.20;;
78116;SDS011;69042;59.120;37.904;2023-04-07T09:49:56;12.15;;;2.00;;
78116;SDS011;69042;59.120;37.904;2023-04-07T09:52:24;27.27;;;3.15;;
78116;SDS011;69042;59.120;37.904;2023-04-07T09:55:12;13.88;;;1.90;;
78116;SDS011;69042;59.120;37.904;2023-04-07T09:57:39;19.45;;;2.55;;
78116;SDS011;69042;59.120;37.904;2023-04-07T10:00:06;15.43;;;2.83;;
78116;SDS011;69042;59.120;37.904;2023-04-07T10:02:38;6.80;;;1.60;;
78116;SDS011;69042;59.120;37.904;2023-04-07T10:05:05;10.77;;;2.17;;
78116;SDS011;69042;59.120;37.904;2023-04-07T10:07:32;18.00;;;3.00;;
78116;SDS011;69042;59.120;37.904;2023-04-07T10:09:58;7.25;;;1.77;;
78116;SDS011;69042;59.120;37.904;2023-04-07T10:12:24;10.15;;;1.85;;
78116;SDS011;69042;59.120;37.904;2023-04-07T10:14:51;11.40;;;3.00;;
78116;SDS011;69042;59.120;37.904;2023-04-07T10:17:19;17.20;;;2.30;;
78116;SDS011;69042;59.120;37.904;2023-04-07T10:19:46;8.52;;;1.85;;
78116;SDS011;69042;59.120;37.904;2023-04-07T10:22:14;17.95;;;3.75;;
78116;SDS011;69042;59.120;37.904;2023-04-07T10:29:54;9.88;;;1.77;;
78116;SDS011;69042;59.120;37.904;2023-04-07T10:32:22;9.98;;;2.13;;
78116;SDS011;69042;59.120;37.904;2023-04-07T10:37:15;13.23;;;2.80;;
78116;SDS011;69042;59.120;37.904;2023-04-07T10:39:45;5.57;;;1.63;;
78116;SDS011;69042;59.120;37.904;2023-04-07T10:45:04;10.63;;;2.60;;
78116;SDS011;69042;59.120;37.904;2023-04-07T10:47:31;11.55;;;2.00;;
78116;SDS011;69042;59.120;37.904;2023-04-07T10:52:46;5.07;;;1.40;;
78116;SDS011;69042;59.120;37.904;2023-04-07T10:58:13;21.67;;;2.83;;
78116;SDS011;69042;59.120;37.904;2023-04-07T11:00:42;7.68;;;2.15;;
78116;SDS011;69042;59.120;37.904;2023-04-07T11:03:29;13.40;;;2.50;;
78116;SDS011;69042;59.120;37.904;2023-04-07T11:06:05;7.47;;;1.25;;
78116;SDS011;69042;59.120;37.904;2023-04-07T11:08:33;5.55;;;1.63;;
78116;SDS011;69042;59.120;37.904;2023-04-07T11:11:01;9.05;;;2.20;;
78116;SDS011;69042;59.120;37.904;2023-04-07T11:13:28;5.93;;;1.33;;
78116;SDS011;69042;59.120;37.904;2023-04-07T11:15:54;8.13;;;1.60;;
78116;SDS011;69042;59.120;37.904;2023-04-07T11:18:20;13.60;;;1.83;;
78116;SDS011;69042;59.120;37.904;2023-04-07T11:20:52;11.32;;;2.15;;
78116;SDS011;69042;59.120;37.904;2023-04-07T11:23:20;9.35;;;1.90;;
78116;SDS011;69042;59.120;37.904;2023-04-07T11:26:01;5.28;;;1.67;;
78116;SDS011;69042;59.120;37.904;2023-04-07T11:28:28;6.20;;;2.10;;
78116;SDS011;69042;59.120;37.904;2023-04-07T11:30:55;26.50;;;4.07;;
78116;SDS011;69042;59.120;37.904;2023-04-07T11:33:24;13.75;;;2.22;;
78116;SDS011;69042;59.120;37.904;2023-04-07T11:35:53;6.75;;;2.17;;
78116;SDS011;69042;59.120;37.904;2023-04-07T11:38:22;8.32;;;1.80;;
78116;SDS011;69042;59.120;37.904;2023-04-07T11:40:51;9.35;;;2.17;;
78116;SDS011;69042;59.120;37.904;2023-04-07T11:43:20;5.45;;;2.20;;
78116;SDS011;69042;59.120;37.904;2023-04-07T11:46:03;7.22;;;1.92;;
78116;SDS011;69042;59.120;37.904;2023-04-07T11:48:32;5.65;;;1.65;;
78116;SDS011;69042;59.120;37.904;2023-04-07T11:51:00;5.20;;;1.45;;
78116;SDS011;69042;59.120;37.904;2023-04-07T11:53:31;9.75;;;1.80;;
78116;SDS011;69042;59.120;37.904;2023-04-07T11:56:05;7.15;;;1.92;;
78116;SDS011;69042;59.120;37.904;2023-04-07T11:58:36;5.28;;;1.50;;
78116;SDS011;69042;59.120;37.904;2023-04-07T12:01:03;23.23;;;2.97;;
78116;SDS011;69042;59.120;37.904;2023-04-07T12:03:34;11.88;;;2.17;;
78116;SDS011;69042;59.120;37.904;2023-04-07T12:06:02;8.43;;;1.90;;
78116;SDS011;69042;59.120;37.904;2023-04-07T12:08:35;9.98;;;1.83;;
78116;SDS011;69042;59.120;37.904;2023-04-07T12:11:05;7.25;;;1.70;;
78116;SDS011;69042;59.120;37.904;2023-04-07T12:13:33;5.78;;;1.83;;
78116;SDS011;69042;59.120;37.904;2023-04-07T12:16:00;6.78;;;1.52;;
78116;SDS011;69042;59.120;37.904;2023-04-07T12:18:26;10.85;;;2.28;;
78116;SDS011;69042;59.120;37.904;2023-04-07T12:20:53;28.30;;;3.97;;
78116;SDS011;69042;59.120;37.904;2023-04-07T12:23:21;8.70;;;1.70;;
78116;SDS011;69042;59.120;37.904;2023-04-07T12:25:47;6.45;;;2.00;;
78116;SDS011;69042;59.120;37.904;2023-04-07T12:28:13;10.77;;;2.20;;
78116;SDS011;69042;59.120;37.904;2023-04-07T12:30:40;6.20;;;1.92;;
78116;SDS011;69042;59.120;37.904;2023-04-07T12:33:06;11.32;;;2.38;;
78116;SDS011;69042;59.120;37.904;2023-04-07T12:35:32;11.35;;;2.13;;
78116;SDS011;69042;59.120;37.904;2023-04-07T12:37:59;8.10;;;2.00;;
78116;SDS011;69042;59.120;37.904;2023-04-07T12:40:25;5.25;;;1.60;;
78116;SDS011;69042;59.120;37.904;2023-04-07T12:42:51;8.18;;;2.10;;
78116;SDS011;69042;59.120;37.904;2023-04-07T12:45:18;10.25;;;2.28;;
78116;SDS011;69042;59.120;37.904;2023-04-07T12:47:44;6.28;;;1.88;;
78116;SDS011;69042;59.120;37.904;2023-04-07T12:50:10;11.55;;;2.22;;
78116;SDS011;69042;59.120;37.904;2023-04-07T12:52:36;9.70;;;2.13;;
78116;SDS011;69042;59.120;37.904;2023-04-07T12:55:02;6.00;;;2.08;;
78116;SDS011;69042;59.120;37.904;2023-04-07T12:57:29;19.02;;;3.03;;
78116;SDS011;69042;59.120;37.904;2023-04-07T12:59:55;58.97;;;4.45;;
78116;SDS011;69042;59.120;37.904;2023-04-07T13:02:21;8.23;;;1.92;;
78116;SDS011;69042;59.120;37.904;2023-04-07T13:04:47;9.15;;;2.45;;
78116;SDS011;69042;59.120;37.904;2023-04-07T13:07:13;9.35;;;2.40;;
78116;SDS011;69042;59.120;37.904;2023-04-07T13:09:40;8.48;;;2.72;;
78116;SDS011;69042;59.120;37.904;2023-04-07T13:12:09;11.57;;;2.58;;
78116;SDS011;69042;59.120;37.904;2023-04-07T13:14:37;7.90;;;2.10;;
78116;SDS011;69042;59.120;37.904;2023-04-07T13:17:04;6.53;;;2.00;;
78116;SDS011;69042;59.120;37.904;2023-04-07T13:19:31;10.82;;;2.42;;
78116;SDS011;69042;59.120;37.904;2023-04-07T13:21:57;7.60;;;2.28;;
78116;SDS011;69042;59.120;37.904;2023-04-07T13:24:23;11.13;;;2.20;;
78116;SDS011;69042;59.120;37.904;2023-04-07T13:26:49;10.60;;;1.60;;
78116;SDS011;69042;59.120;37.904;2023-04-07T13:29:16;16.25;;;2.67;;
78116;SDS011;69042;59.120;37.904;2023-04-07T13:31:46;10.75;;;2.15;;
78116;SDS011;69042;59.120;37.904;2023-04-07T13:34:13;10.95;;;2.13;;
78116;SDS011;69042;59.120;37.904;2023-04-07T13:36:40;8.25;;;2.40;;
78116;SDS011;69042;59.120;37.904;2023-04-07T13:39:06;11.77;;;2.47;;
78116;SDS011;69042;59.120;37.904;2023-04-07T13:41:33;29.70;;;2.83;;
78116;SDS011;69042;59.120;37.904;2023-04-07T13:43:59;10.73;;;2.30;;
78116;SDS011;69042;59.120;37.904;2023-04-07T13:46:26;5.25;;;2.05;;
78116;SDS011;69042;59.120;37.904;2023-04-07T13:48:52;7.40;;;2.22;;
78116;SDS011;69042;59.120;37.904;2023-04-07T13:51:19;8.40;;;2.13;;
78116;SDS011;69042;59.120;37.904;2023-04-07T13:53:45;13.70;;;3.10;;
78116;SDS011;69042;59.120;37.904;2023-04-07T13:56:12;12.13;;;2.70;;
78116;SDS011;69042;59.120;37.904;2023-04-07T13:58:38;7.85;;;1.70;;
78116;SDS011;69042;59.120;37.904;2023-04-07T14:01:04;11.00;;;2.28;;
78116;SDS011;69042;59.120;37.904;2023-04-07T14:03:30;7.65;;;2.08;;
78116;SDS011;69042;59.120;37.904;2023-04-07T14:05:57;12.45;;;1.70;;
78116;SDS011;69042;59.120;37.904;2023-04-07T14:08:26;11.55;;;2.65;;
78116;SDS011;69042;59.120;37.904;2023-04-07T14:10:52;16.63;;;2.55;;
78116;SDS011;69042;59.120;37.904;2023-04-07T14:13:18;6.78;;;1.90;;
78116;SDS011;69042;59.120;37.904;2023-04-07T14:15:44;5.03;;;1.70;;
78116;SDS011;69042;59.120;37.904;2023-04-07T14:18:11;10.93;;;2.78;;
78116;SDS011;69042;59.120;37.904;2023-04-07T14:20:37;8.52;;;1.65;;
78116;SDS011;69042;59.120;37.904;2023-04-07T14:23:03;5.65;;;1.70;;
78116;SDS011;69042;59.120;37.904;2023-04-07T14:25:30;9.18;;;2.35;;
78116;SDS011;69042;59.120;37.904;2023-04-07T14:27:56;13.88;;;2.60;;
78116;SDS011;69042;59.120;37.904;2023-04-07T14:30:22;5.03;;;1.90;;
78116;SDS011;69042;59.120;37.904;2023-04-07T14:32:48;4.85;;;1.80;;
78116;SDS011;69042;59.120;37.904;2023-04-07T14:35:14;7.28;;;2.05;;
78116;SDS011;69042;59.120;37.904;2023-04-07T14:37:41;6.03;;;1.92;;
78116;SDS011;69042;59.120;37.904;2023-04-07T14:40:07;8.77;;;2.55;;
78116;SDS011;69042;59.120;37.904;2023-04-07T14:42:33;11.68;;;2.40;;
78116;SDS011;69042;59.120;37.904;2023-04-07T14:45:00;7.03;;;2.08;;
78116;SDS011;69042;59.120;37.904;2023-04-07T14:47:26;6.25;;;1.80;;
78116;SDS011;69042;59.120;37.904;2023-04-07T14:49:52;6.07;;;1.80;;
78116;SDS011;69042;59.120;37.904;2023-04-07T14:52:19;9.52;;;2.00;;
78116;SDS011;69042;59.120;37.904;2023-04-07T14:54:46;8.57;;;1.90;;
78116;SDS011;69042;59.120;37.904;2023-04-07T14:57:13;8.43;;;2.13;;
78116;SDS011;69042;59.120;37.904;2023-04-07T14:59:39;9.63;;;2.22;;
78116;SDS011;69042;59.120;37.904;2023-04-07T15:02:05;13.98;;;2.63;;
78116;SDS011;69042;59.120;37.904;2023-04-07T15:04:31;135.57;;;6.65;;
78116;SDS011;69042;59.120;37.904;2023-04-07T15:06:57;9.85;;;2.15;;
78116;SDS011;69042;59.120;37.904;2023-04-07T15:09:23;9.68;;;1.77;;
78116;SDS011;69042;59.120;37.904;2023-04-07T15:11:49;9.80;;;2.75;;
78116;SDS011;69042;59.120;37.904;2023-04-07T15:14:16;8.07;;;1.83;;